Terminal Aerodrome Forecast
Issued by NWS Norman, OK

Home | Current Version | Previous Version | Text Only | Print | Product List | Glossary On
Versions: 1 2 3 4 5 6 7 8 9 10 11 12 13 14 15
000
FTUS44 KOUN 081724
TAFSPS
TAF
KSPS 081724Z 0818/0918 02014KT P6SM OVC090
     FM090000 VRB05KT P6SM OVC080
     FM091400 14009KT P6SM BKN060=

USA.gov is the U.S. government's official web portal to all federal, state and local government web resources and services.